Time;durP1;ratioP1;P1;durP2;ratioP2;P2;SDS_P1;SDS_P2;PMS_P1;PMS_P2;Temp;Humidity;BMP_temperature;BMP_pressure;BME280_temperature;BME280_humidity;BME280_pressure;Samples;Min_cycle;Max_cycle;Signal;HPM_P1;HPM_P2
2022/11/03 00:00:40;;;;;;;6.50;1.50;;;;;;;-128.00;-1.00;-1.00;103470;1288;1011647;-74
2022/11/03 00:03:28;;;;;;;8.10;1.80;;;;;;;-128.00;-1.00;-1.00;103514;1273;1012823;-76
2022/11/03 00:06:16;;;;;;;7.80;1.90;;;;;;;-128.00;-1.00;-1.00;103510;1272;1012245;-76
2022/11/03 00:09:07;;;;;;;8.40;2.10;;;;;;;-128.00;-1.00;-1.00;103514;1273;1013307;-75
2022/11/03 00:11:55;;;;;;;8.60;1.90;;;;;;;-128.00;-1.00;-1.00;103499;1288;1010300;-75
2022/11/03 00:14:43;;;;;;;6.40;1.80;;;;;;;-128.00;-1.00;-1.00;103526;1288;1010851;-75
2022/11/03 00:17:31;;;;;;;8.40;1.90;;;;;;;-128.00;-1.00;-1.00;103529;1280;1012887;-75
2022/11/03 00:20:19;;;;;;;6.50;1.80;;;;;;;-128.00;-1.00;-1.00;103509;1265;1011894;-75
2022/11/03 00:23:07;;;;;;;7.70;1.70;;;;;;;-128.00;-1.00;-1.00;103525;1269;1011913;-75
2022/11/03 00:26:12;;;;;;;7.70;1.60;;;;;;;-128.00;-1.00;-1.00;103503;1288;1009120;-75
2022/11/03 00:29:11;;;;;;;7.40;1.60;;;;;;;-128.00;-1.00;-1.00;103530;1285;1011920;-75
2022/11/03 00:32:00;;;;;;;9.10;1.80;;;;;;;-128.00;-1.00;-1.00;103533;1273;1012847;-74
2022/11/03 00:34:48;;;;;;;7.30;1.70;;;;;;;-128.00;-1.00;-1.00;103523;1279;1013256;-75
2022/11/03 00:37:36;;;;;;;8.80;1.80;;;;;;;-128.00;-1.00;-1.00;103504;1273;1013352;-75
2022/11/03 00:40:26;;;;;;;8.80;1.70;;;;;;;-128.00;-1.00;-1.00;103511;1273;1009651;-76
2022/11/03 00:43:14;;;;;;;6.90;1.50;;;;;;;-128.00;-1.00;-1.00;103512;1282;1010576;-75
2022/11/03 00:46:06;;;;;;;9.70;2.30;;;;;;;-128.00;-1.00;-1.00;103530;1288;1012833;-74
2022/11/03 00:48:54;;;;;;;9.10;1.70;;;;;;;-128.00;-1.00;-1.00;103512;1288;1013030;-75
2022/11/03 00:51:42;;;;;;;6.90;1.60;;;;;;;-128.00;-1.00;-1.00;103513;1272;1011980;-76
2022/11/03 00:54:30;;;;;;;9.20;1.80;;;;;;;-128.00;-1.00;-1.00;103504;1281;1009456;-75
2022/11/03 00:57:18;;;;;;;9.20;2.00;;;;;;;-128.00;-1.00;-1.00;103511;1273;1010271;-75
2022/11/03 01:00:06;;;;;;;8.30;1.60;;;;;;;-128.00;-1.00;-1.00;103518;1280;1013076;-75
2022/11/03 01:02:54;;;;;;;9.70;1.90;;;;;;;-128.00;-1.00;-1.00;103512;1280;1011949;-75
2022/11/03 01:08:50;;;;;;;8.30;1.50;;;;;;;-128.00;-1.00;-1.00;103520;1273;1009375;-76
2022/11/03 01:11:44;;;;;;;7.00;1.20;;;;;;;-128.00;-1.00;-1.00;103437;1289;1011475;-75
2022/11/03 01:14:36;;;;;;;8.10;1.60;;;;;;;-128.00;-1.00;-1.00;103382;1281;1013282;-75
2022/11/03 01:17:27;;;;;;;6.90;1.60;;;;;;;-128.00;-1.00;-1.00;103524;1280;1012595;-75
2022/11/03 01:20:15;;;;;;;8.00;1.70;;;;;;;-128.00;-1.00;-1.00;103385;1292;1013084;-77
2022/11/03 01:23:02;;;;;;;9.90;1.80;;;;;;;-128.00;-1.00;-1.00;103515;1281;1009877;-75
2022/11/03 01:25:51;;;;;;;10.30;1.50;;;;;;;-128.00;-1.00;-1.00;103422;1281;1011534;-76
2022/11/03 01:28:42;;;;;;;7.70;1.80;;;;;;;-128.00;-1.00;-1.00;103521;1273;1013345;-73
2022/11/03 01:31:30;;;;;;;6.80;1.50;;;;;;;-128.00;-1.00;-1.00;103521;1273;1012322;-75
2022/11/03 01:34:20;;;;;;;9.20;1.90;;;;;;;-128.00;-1.00;-1.00;103505;1280;1012941;-75
2022/11/03 01:37:08;;;;;;;10.30;1.90;;;;;;;-128.00;-1.00;-1.00;103502;1289;1010192;-76
2022/11/03 01:39:55;;;;;;;8.20;1.60;;;;;;;-128.00;-1.00;-1.00;103490;1281;1011245;-76
2022/11/03 01:42:45;;;;;;;8.10;1.50;;;;;;;-128.00;-1.00;-1.00;103516;1281;1013123;-74
2022/11/03 01:45:32;;;;;;;9.50;2.00;;;;;;;-128.00;-1.00;-1.00;103497;1280;1011785;-75
2022/11/03 01:48:21;;;;;;;9.10;1.70;;;;;;;-128.00;-1.00;-1.00;103539;1289;1012356;-78
2022/11/03 01:51:12;;;;;;;8.00;1.70;;;;;;;-128.00;-1.00;-1.00;103517;1280;1009779;-75
2022/11/03 01:54:07;;;;;;;9.30;2.00;;;;;;;-128.00;-1.00;-1.00;103502;1273;1010754;-75
2022/11/03 01:56:56;;;;;;;11.90;1.80;;;;;;;-128.00;-1.00;-1.00;103519;1273;1012914;-76
2022/11/03 01:59:46;;;;;;;12.90;1.90;;;;;;;-128.00;-1.00;-1.00;103514;1288;1012740;-77
2022/11/03 02:02:37;;;;;;;10.60;1.90;;;;;;;-128.00;-1.00;-1.00;103467;1272;1012404;-77
2022/11/03 02:05:27;;;;;;;6.30;1.40;;;;;;;-128.00;-1.00;-1.00;103407;1276;1010357;-78
2022/11/03 02:08:45;;;;;;;11.40;1.70;;;;;;;-128.00;-1.00;-1.00;103528;1282;1010642;-77
2022/11/03 02:15:10;;;;;;;7.80;1.70;;;;;;;-128.00;-1.00;-1.00;103519;1283;1012077;-77
2022/11/03 02:17:59;;;;;;;12.60;2.10;;;;;;;-128.00;-1.00;-1.00;103372;1292;1012693;-77
2022/11/03 02:21:03;;;;;;;10.40;2.20;;;;;;;-128.00;-1.00;-1.00;103444;1265;1009100;-78
2022/11/03 02:24:10;;;;;;;12.30;2.00;;;;;;;-128.00;-1.00;-1.00;103374;1288;1011273;-76
2022/11/03 02:26:58;;;;;;;11.40;1.60;;;;;;;-128.00;-1.00;-1.00;103454;1282;1011732;-75
2022/11/03 02:29:45;;;;;;;11.60;2.20;;;;;;;-128.00;-1.00;-1.00;103443;1275;1012759;-80
2022/11/03 02:33:07;;;;;;;9.20;2.30;;;;;;;-128.00;-1.00;-1.00;103542;1273;1012442;-77
2022/11/03 02:36:19;;;;;;;13.10;2.20;;;;;;;-128.00;-1.00;-1.00;103471;1280;1009111;-78
2022/11/03 02:39:21;;;;;;;9.40;2.10;;;;;;;-128.00;-1.00;-1.00;103459;1276;1010415;-77
2022/11/03 02:42:11;;;;;;;11.00;2.20;;;;;;;-128.00;-1.00;-1.00;103439;1283;1013258;-76
2022/11/03 02:45:06;;;;;;;11.80;2.50;;;;;;;-128.00;-1.00;-1.00;103523;1280;1012634;-75
2022/11/03 02:47:58;;;;;;;14.00;3.00;;;;;;;-128.00;-1.00;-1.00;103420;1280;1012336;-77
2022/11/03 02:50:50;;;;;;;13.00;2.70;;;;;;;-128.00;-1.00;-1.00;103439;1280;1009642;-76
2022/11/03 02:54:17;;;;;;;10.70;2.30;;;;;;;-128.00;-1.00;-1.00;103413;1276;1010998;-76
2022/11/03 02:57:12;;;;;;;11.30;2.40;;;;;;;-128.00;-1.00;-1.00;103085;1294;1014048;-77
2022/11/03 03:00:06;;;;;;;9.90;1.80;;;;;;;-128.00;-1.00;-1.00;102962;1292;1012814;-77
2022/11/03 03:03:06;;;;;;;9.60;2.10;;;;;;;-128.00;-1.00;-1.00;103062;1286;1012627;-79
2022/11/03 03:06:08;;;;;;;10.00;2.80;;;;;;;-128.00;-1.00;-1.00;102919;1279;1010382;-75
2022/11/03 03:09:02;;;;;;;12.40;2.90;;;;;;;-128.00;-1.00;-1.00;103050;1294;1010798;-76
2022/11/03 03:11:54;;;;;;;9.80;2.80;;;;;;;-128.00;-1.00;-1.00;103061;1279;1012828;-75
2022/11/03 03:14:45;;;;;;;11.00;2.60;;;;;;;-128.00;-1.00;-1.00;103079;1286;1013089;-78
2022/11/03 03:18:12;;;;;;;11.70;2.00;;;;;;;-128.00;-1.00;-1.00;103075;1284;1012190;-75
2022/11/03 03:21:10;;;;;;;11.10;2.40;;;;;;;-128.00;-1.00;-1.00;103101;1277;1009515;-76
2022/11/03 03:24:04;;;;;;;16.50;3.50;;;;;;;-128.00;-1.00;-1.00;103109;1294;1011688;-75
2022/11/03 03:26:57;;;;;;;12.70;2.60;;;;;;;-128.00;-1.00;-1.00;103060;1279;1013294;-76
2022/11/03 03:30:04;;;;;;;10.50;2.50;;;;;;;-128.00;-1.00;-1.00;103109;1286;1012185;-76
2022/11/03 03:32:55;;;;;;;12.30;2.40;;;;;;;-128.00;-1.00;-1.00;103045;1278;1013105;-76
2022/11/03 03:35:47;;;;;;;13.10;2.40;;;;;;;-128.00;-1.00;-1.00;103465;1268;1010064;-76
2022/11/03 03:38:44;;;;;;;10.30;2.00;;;;;;;-128.00;-1.00;-1.00;103424;1289;1011055;-76
2022/11/03 03:41:34;;;;;;;8.60;2.50;;;;;;;-128.00;-1.00;-1.00;103422;1276;1012601;-76
2022/11/03 03:44:23;;;;;;;6.60;2.00;;;;;;;-128.00;-1.00;-1.00;103530;1272;1013108;-76
2022/11/03 03:47:23;;;;;;;13.30;2.60;;;;;;;-128.00;-1.00;-1.00;103519;1273;1011865;-76
2022/11/03 03:50:11;;;;;;;12.40;2.80;;;;;;;-128.00;-1.00;-1.00;103438;1289;1009603;-77
2022/11/03 03:53:01;;;;;;;12.70;2.70;;;;;;;-128.00;-1.00;-1.00;103504;1284;1011495;-75
2022/11/03 03:55:51;;;;;;;12.60;2.40;;;;;;;-128.00;-1.00;-1.00;103534;1273;1013096;-76
2022/11/03 03:58:39;;;;;;;13.70;2.40;;;;;;;-128.00;-1.00;-1.00;103397;1265;1013142;-75
2022/11/03 04:01:27;;;;;;;12.30;2.90;;;;;;;-128.00;-1.00;-1.00;103502;1281;1011911;-76
2022/11/03 04:04:15;;;;;;;11.70;2.40;;;;;;;-128.00;-1.00;-1.00;103518;1271;1009536;-77
2022/11/03 04:10:10;;;;;;;12.80;2.50;;;;;;;-128.00;-1.00;-1.00;103504;1273;1013352;-75
2022/11/03 04:22:21;;;;;;;11.50;2.70;;;;;;;-128.00;-1.00;-1.00;103519;1288;1011023;-75
2022/11/03 04:25:08;;;;;;;11.90;2.60;;;;;;;-128.00;-1.00;-1.00;103515;1280;1012948;-75
2022/11/03 04:27:56;;;;;;;12.60;2.70;;;;;;;-128.00;-1.00;-1.00;103341;1268;1011778;-76
2022/11/03 04:30:44;;;;;;;11.60;2.50;;;;;;;-128.00;-1.00;-1.00;103518;1273;1013775;-76
2022/11/03 04:33:31;;;;;;;10.60;2.50;;;;;;;-128.00;-1.00;-1.00;103412;1280;1010329;-76
2022/11/03 04:36:23;;;;;;;13.30;2.60;;;;;;;-128.00;-1.00;-1.00;103514;1281;1011194;-77
2022/11/03 04:39:19;;;;;;;11.50;3.10;;;;;;;-128.00;-1.00;-1.00;103515;1282;1012630;-76
2022/11/03 04:42:25;;;;;;;10.50;2.60;;;;;;;-128.00;-1.00;-1.00;103505;1272;1012141;-75
2022/11/03 04:45:23;;;;;;;8.90;2.30;;;;;;;-128.00;-1.00;-1.00;103532;1280;1012360;-76
2022/11/03 04:48:24;;;;;;;9.20;2.70;;;;;;;-128.00;-1.00;-1.00;103546;1280;1010099;-76
2022/11/03 04:51:23;;;;;;;10.20;2.40;;;;;;;-128.00;-1.00;-1.00;103460;1281;1011017;-75
2022/11/03 04:54:22;;;;;;;14.20;2.50;;;;;;;-128.00;-1.00;-1.00;103516;1273;1012845;-76
2022/11/03 04:57:16;;;;;;;11.30;2.30;;;;;;;-128.00;-1.00;-1.00;103442;1288;1013214;-76
2022/11/03 05:00:06;;;;;;;10.40;2.40;;;;;;;-128.00;-1.00;-1.00;103518;1280;1013335;-75
2022/11/03 05:02:54;;;;;;;11.00;2.60;;;;;;;-128.00;-1.00;-1.00;103466;1288;1011133;-75
2022/11/03 05:05:43;;;;;;;9.30;2.00;;;;;;;-128.00;-1.00;-1.00;103470;1289;1011638;-76
2022/11/03 05:08:31;;;;;;;11.30;2.80;;;;;;;-128.00;-1.00;-1.00;103502;1289;1012728;-76
2022/11/03 05:11:35;;;;;;;9.60;2.50;;;;;;;-128.00;-1.00;-1.00;103464;1272;1012080;-76
2022/11/03 05:14:30;;;;;;;12.60;2.60;;;;;;;-128.00;-1.00;-1.00;103414;1276;1012202;-76
2022/11/03 05:17:26;;;;;;;11.20;2.60;;;;;;;-128.00;-1.00;-1.00;103471;1288;1009834;-76
2022/11/03 05:20:36;;;;;;;13.40;2.60;;;;;;;-128.00;-1.00;-1.00;103509;1281;1010733;-78
2022/11/03 05:23:27;;;;;;;11.70;2.60;;;;;;;-128.00;-1.00;-1.00;103426;1276;1012009;-75
2022/11/03 05:26:31;;;;;;;14.90;2.90;;;;;;;-128.00;-1.00;-1.00;103514;1280;1012483;-76
2022/11/03 05:29:35;;;;;;;13.60;2.70;;;;;;;-128.00;-1.00;-1.00;103482;1280;1012664;-77
2022/11/03 05:32:28;;;;;;;15.50;2.80;;;;;;;-128.00;-1.00;-1.00;103383;1289;1009391;-75
2022/11/03 05:35:21;;;;;;;12.40;2.70;;;;;;;-128.00;-1.00;-1.00;103392;1289;1011075;-76
2022/11/03 05:38:18;;;;;;;12.00;2.70;;;;;;;-128.00;-1.00;-1.00;103359;1275;1012577;-76
2022/11/03 05:41:19;;;;;;;11.40;2.60;;;;;;;-128.00;-1.00;-1.00;103416;1273;1011639;-76
2022/11/03 05:44:30;;;;;;;12.40;2.30;;;;;;;-128.00;-1.00;-1.00;103415;1276;1013477;-76
2022/11/03 05:47:31;;;;;;;8.80;2.50;;;;;;;-128.00;-1.00;-1.00;103511;1273;1010515;-77
2022/11/03 05:50:26;;;;;;;9.80;2.80;;;;;;;-128.00;-1.00;-1.00;103415;1289;1012175;-76
2022/11/03 05:53:31;;;;;;;12.10;2.40;;;;;;;-128.00;-1.00;-1.00;103512;1275;1011927;-76
2022/11/03 05:56:22;;;;;;;11.00;2.70;;;;;;;-128.00;-1.00;-1.00;103503;1270;1012830;-77
2022/11/03 05:59:13;;;;;;;11.80;2.70;;;;;;;-128.00;-1.00;-1.00;103407;1273;1012816;-76
2022/11/03 06:02:04;;;;;;;12.50;3.30;;;;;;;-128.00;-1.00;-1.00;103511;1266;1009466;-76
2022/11/03 06:04:52;;;;;;;13.30;3.40;;;;;;;-128.00;-1.00;-1.00;103408;1289;1011605;-75
2022/11/03 06:07:40;;;;;;;13.50;3.20;;;;;;;-128.00;-1.00;-1.00;103484;1280;1012650;-76
2022/11/03 06:10:39;;;;;;;9.90;3.30;;;;;;;-128.00;-1.00;-1.00;103488;1280;1012333;-76
2022/11/03 06:13:36;;;;;;;17.10;3.50;;;;;;;-128.00;-1.00;-1.00;103478;1280;1013272;-76
2022/11/03 06:16:41;;;;;;;8.70;3.30;;;;;;;-128.00;-1.00;-1.00;103396;1268;1010369;-75
2022/11/03 06:19:30;;;;;;;10.40;3.20;;;;;;;-128.00;-1.00;-1.00;103570;1281;1011437;-77
2022/11/03 06:22:23;;;;;;;14.90;3.50;;;;;;;-128.00;-1.00;-1.00;103429;1289;1012416;-77
2022/11/03 06:25:26;;;;;;;11.70;3.50;;;;;;;-128.00;-1.00;-1.00;103519;1289;1013106;-76
2022/11/03 06:28:29;;;;;;;18.80;4.50;;;;;;;-128.00;-1.00;-1.00;103511;1280;1013153;-76
2022/11/03 06:31:26;;;;;;;19.30;4.00;;;;;;;-128.00;-1.00;-1.00;103531;1287;1010376;-75
2022/11/03 06:34:23;;;;;;;14.60;3.90;;;;;;;-128.00;-1.00;-1.00;103437;1288;1010731;-77
2022/11/03 06:37:34;;;;;;;11.80;3.70;;;;;;;-128.00;-1.00;-1.00;103491;1281;1012876;-76
2022/11/03 06:40:24;;;;;;;11.50;3.80;;;;;;;-128.00;-1.00;-1.00;103407;1280;1012196;-75
2022/11/03 06:43:19;;;;;;;14.40;4.70;;;;;;;-128.00;-1.00;-1.00;103526;1266;1012012;-78
2022/11/03 06:46:33;;;;;;;14.10;4.60;;;;;;;-128.00;-1.00;-1.00;103502;1265;1009389;-78
2022/11/03 06:49:27;;;;;;;16.10;5.70;;;;;;;-128.00;-1.00;-1.00;103472;1288;1010605;-76
2022/11/03 06:52:34;;;;;;;14.00;4.90;;;;;;;-128.00;-1.00;-1.00;103486;1273;1012526;-77
2022/11/03 06:55:27;;;;;;;13.00;4.70;;;;;;;-128.00;-1.00;-1.00;103481;1272;1012314;-77
2022/11/03 06:58:41;;;;;;;14.40;4.90;;;;;;;-128.00;-1.00;-1.00;103371;1287;1013610;-77
2022/11/03 07:01:34;;;;;;;12.40;4.00;;;;;;;-128.00;-1.00;-1.00;103487;1266;1009846;-76
2022/11/03 07:04:28;;;;;;;12.80;4.30;;;;;;;-128.00;-1.00;-1.00;103502;1273;1010473;-77
2022/11/03 07:07:16;;;;;;;13.10;4.30;;;;;;;-128.00;-1.00;-1.00;103481;1280;1011946;-76
2022/11/03 07:10:05;;;;;;;12.40;4.60;;;;;;;-128.00;-1.00;-1.00;103378;1282;1012574;-78
2022/11/03 07:12:55;;;;;;;12.70;4.50;;;;;;;-128.00;-1.00;-1.00;103505;1281;1012489;-76
2022/11/03 07:15:44;;;;;;;12.00;4.20;;;;;;;-128.00;-1.00;-1.00;103389;1292;1009695;-75
2022/11/03 07:18:41;;;;;;;11.40;3.80;;;;;;;-128.00;-1.00;-1.00;103502;1273;1011556;-77
2022/11/03 07:21:46;;;;;;;13.70;4.60;;;;;;;-128.00;-1.00;-1.00;103343;1268;1012625;-76
2022/11/03 07:24:40;;;;;;;14.50;4.20;;;;;;;-128.00;-1.00;-1.00;103484;1280;1012168;-77
2022/11/03 07:27:37;;;;;;;12.70;4.50;;;;;;;-128.00;-1.00;-1.00;103327;1265;1012861;-77
2022/11/03 07:30:35;;;;;;;12.00;4.20;;;;;;;-128.00;-1.00;-1.00;103498;1289;1008985;-76
2022/11/03 07:33:26;;;;;;;12.90;3.90;;;;;;;-128.00;-1.00;-1.00;103393;1289;1010648;-76
2022/11/03 07:36:19;;;;;;;13.80;5.40;;;;;;;-128.00;-1.00;-1.00;103392;1284;1013185;-77
2022/11/03 07:39:12;;;;;;;14.30;4.40;;;;;;;-128.00;-1.00;-1.00;103484;1281;1012830;-77
2022/11/03 07:42:14;;;;;;;14.60;5.00;;;;;;;-128.00;-1.00;-1.00;103501;1266;1012518;-78
2022/11/03 07:45:39;;;;;;;15.10;4.50;;;;;;;-128.00;-1.00;-1.00;103502;1280;1011338;-77
2022/11/03 07:48:35;;;;;;;12.70;4.20;;;;;;;-128.00;-1.00;-1.00;103447;1289;1010860;-77
2022/11/03 07:51:31;;;;;;;14.40;4.40;;;;;;;-128.00;-1.00;-1.00;103416;1276;1013190;-76
2022/11/03 07:54:23;;;;;;;10.90;4.60;;;;;;;-128.00;-1.00;-1.00;103511;1273;1012218;-77
2022/11/03 07:57:22;;;;;;;12.30;4.70;;;;;;;-128.00;-1.00;-1.00;103517;1280;1012883;-77
2022/11/03 08:00:21;;;;;;;14.50;4.10;;;;;;;-128.00;-1.00;-1.00;103357;1289;1009744;-77
2022/11/03 08:03:27;;;;;;;11.80;3.60;;;;;;;-128.00;-1.00;-1.00;103417;1288;1010108;-78
2022/11/03 08:06:15;;;;;;;12.10;4.00;;;;;;;-128.00;-1.00;-1.00;103429;1283;1012193;-76
2022/11/03 08:09:07;;;;;;;10.70;3.90;;;;;;;-128.00;-1.00;-1.00;103500;1273;1012385;-76
2022/11/03 08:11:55;;;;;;;15.10;4.60;;;;;;;-128.00;-1.00;-1.00;103387;1280;1013741;-77
2022/11/03 08:14:43;;;;;;;12.50;4.00;;;;;;;-128.00;-1.00;-1.00;103498;1266;1010010;-77
2022/11/03 08:17:30;;;;;;;14.30;3.80;;;;;;;-128.00;-1.00;-1.00;103505;1273;1010367;-77
2022/11/03 08:20:18;;;;;;;15.60;4.00;;;;;;;-128.00;-1.00;-1.00;103488;1265;1012557;-77
2022/11/03 08:23:06;;;;;;;13.60;4.00;;;;;;;-128.00;-1.00;-1.00;103503;1273;1012334;-76
2022/11/03 08:26:16;;;;;;;12.60;3.90;;;;;;;-128.00;-1.00;-1.00;103472;1286;1012982;-76
2022/11/03 08:29:04;;;;;;;13.70;4.40;;;;;;;-128.00;-1.00;-1.00;103482;1289;1009767;-77
2022/11/03 08:31:53;;;;;;;13.50;4.00;;;;;;;-128.00;-1.00;-1.00;103499;1288;1010906;-76
2022/11/03 08:34:41;;;;;;;14.20;4.80;;;;;;;-128.00;-1.00;-1.00;103502;1281;1012736;-77
2022/11/03 08:37:29;;;;;;;13.70;4.00;;;;;;;-128.00;-1.00;-1.00;103511;1292;1012563;-76
2022/11/03 08:40:17;;;;;;;13.10;3.80;;;;;;;-128.00;-1.00;-1.00;103471;1273;1013666;-75
2022/11/03 08:43:05;;;;;;;13.40;3.40;;;;;;;-128.00;-1.00;-1.00;103481;1281;1010773;-77
2022/11/03 08:45:53;;;;;;;13.10;3.20;;;;;;;-128.00;-1.00;-1.00;103501;1289;1010735;-76
2022/11/03 08:48:41;;;;;;;10.80;3.30;;;;;;;-128.00;-1.00;-1.00;103501;1273;1013385;-76
2022/11/03 08:51:29;;;;;;;12.10;3.50;;;;;;;-128.00;-1.00;-1.00;103504;1279;1012308;-76
2022/11/03 08:54:16;;;;;;;18.80;4.20;;;;;;;-128.00;-1.00;-1.00;103495;1271;1012370;-77
2022/11/03 08:57:04;;;;;;;13.50;3.30;;;;;;;-128.00;-1.00;-1.00;103489;1289;1009824;-77
2022/11/03 08:59:53;;;;;;;14.50;4.60;;;;;;;-128.00;-1.00;-1.00;103483;1288;1012230;-79
2022/11/03 09:02:43;;;;;;;18.30;3.90;;;;;;;-128.00;-1.00;-1.00;103441;1288;1012441;-76
2022/11/03 09:05:31;;;;;;;17.90;5.10;;;;;;;-128.00;-1.00;-1.00;103492;1276;1012277;-78
2022/11/03 09:08:19;;;;;;;18.70;7.50;;;;;;;-128.00;-1.00;-1.00;103505;1272;1013055;-77
2022/11/03 09:11:27;;;;;;;11.60;3.90;;;;;;;-128.00;-1.00;-1.00;103480;1279;1010151;-76
2022/11/03 09:14:15;;;;;;;14.80;4.20;;;;;;;-128.00;-1.00;-1.00;103493;1288;1011440;-78
2022/11/03 09:17:02;;;;;;;14.00;5.50;;;;;;;-128.00;-1.00;-1.00;103495;1275;1012909;-78
2022/11/03 09:19:55;;;;;;;14.30;3.40;;;;;;;-128.00;-1.00;-1.00;103517;1273;1013201;-78
2022/11/03 09:22:43;;;;;;;10.90;3.10;;;;;;;-128.00;-1.00;-1.00;103517;1272;1012547;-76
2022/11/03 09:25:31;;;;;;;14.00;3.80;;;;;;;-128.00;-1.00;-1.00;103504;1279;1009750;-77
2022/11/03 09:28:18;;;;;;;16.10;4.30;;;;;;;-128.00;-1.00;-1.00;103491;1281;1011972;-77
2022/11/03 09:31:06;;;;;;;13.40;3.40;;;;;;;-128.00;-1.00;-1.00;103482;1280;1012811;-77
2022/11/03 09:33:53;;;;;;;13.60;2.90;;;;;;;-128.00;-1.00;-1.00;103480;1280;1012433;-76
2022/11/03 09:36:41;;;;;;;13.60;4.10;;;;;;;-128.00;-1.00;-1.00;103518;1288;1013216;-77
2022/11/03 09:39:29;;;;;;;10.70;3.40;;;;;;;-128.00;-1.00;-1.00;103496;1279;1009790;-77
2022/11/03 09:42:17;;;;;;;10.90;4.30;;;;;;;-128.00;-1.00;-1.00;103492;1289;1011697;-76
2022/11/03 09:45:07;;;;;;;9.90;3.00;;;;;;;-128.00;-1.00;-1.00;103496;1273;1012215;-76
2022/11/03 09:47:55;;;;;;;11.70;3.20;;;;;;;-128.00;-1.00;-1.00;103375;1291;1012660;-75
2022/11/03 09:50:44;;;;;;;10.10;2.70;;;;;;;-128.00;-1.00;-1.00;103430;1281;1013234;-78
2022/11/03 09:53:32;;;;;;;14.10;5.00;;;;;;;-128.00;-1.00;-1.00;103513;1280;1009422;-77
2022/11/03 09:56:23;;;;;;;11.80;2.80;;;;;;;-128.00;-1.00;-1.00;103498;1295;1010437;-79
2022/11/03 09:59:21;;;;;;;10.50;3.50;;;;;;;-128.00;-1.00;-1.00;103355;1276;1013719;-76
2022/11/03 10:02:28;;;;;;;9.90;2.80;;;;;;;-128.00;-1.00;-1.00;103400;1274;1011822;-77
2022/11/03 10:05:24;;;;;;;9.50;2.50;;;;;;;-128.00;-1.00;-1.00;103242;1275;1013009;-78
2022/11/03 10:08:32;;;;;;;8.00;2.40;;;;;;;-128.00;-1.00;-1.00;103411;1280;1009613;-77
2022/11/03 10:11:22;;;;;;;12.00;2.80;;;;;;;-128.00;-1.00;-1.00;103496;1287;1010650;-74
2022/11/03 10:14:14;;;;;;;11.80;2.40;;;;;;;-128.00;-1.00;-1.00;103517;1280;1013437;-77
2022/11/03 10:17:02;;;;;;;11.10;4.00;;;;;;;-128.00;-1.00;-1.00;103442;1288;1012614;-78
2022/11/03 10:19:54;;;;;;;12.80;3.00;;;;;;;-128.00;-1.00;-1.00;103534;1271;1012584;-76
2022/11/03 10:22:44;;;;;;;10.00;2.40;;;;;;;-128.00;-1.00;-1.00;103392;1280;1010363;-76
2022/11/03 10:25:35;;;;;;;11.60;2.50;;;;;;;-128.00;-1.00;-1.00;103393;1292;1011929;-76
2022/11/03 10:28:27;;;;;;;10.10;2.30;;;;;;;-128.00;-1.00;-1.00;103477;1287;1013257;-78
2022/11/03 10:31:20;;;;;;;10.30;3.20;;;;;;;-128.00;-1.00;-1.00;103368;1274;1012503;-76
2022/11/03 10:34:46;;;;;;;11.60;4.10;;;;;;;-128.00;-1.00;-1.00;103336;1276;1013768;-77
2022/11/03 10:37:37;;;;;;;9.90;2.70;;;;;;;-128.00;-1.00;-1.00;103069;1279;1009777;-79
2022/11/03 10:40:36;;;;;;;9.60;2.70;;;;;;;-128.00;-1.00;-1.00;103071;1295;1011743;-76
2022/11/03 10:43:41;;;;;;;10.00;2.50;;;;;;;-128.00;-1.00;-1.00;103087;1277;1012623;-78
2022/11/03 10:46:31;;;;;;;10.00;2.30;;;;;;;-128.00;-1.00;-1.00;103052;1279;1012793;-77
2022/11/03 10:49:39;;;;;;;9.80;2.20;;;;;;;-128.00;-1.00;-1.00;103037;1285;1013193;-76
2022/11/03 10:52:30;;;;;;;8.40;2.40;;;;;;;-128.00;-1.00;-1.00;103070;1287;1009819;-77
2022/11/03 10:55:21;;;;;;;10.60;2.80;;;;;;;-128.00;-1.00;-1.00;103058;1293;1010681;-76
2022/11/03 10:58:12;;;;;;;9.10;3.40;;;;;;;-128.00;-1.00;-1.00;103071;1271;1012925;-76
2022/11/03 11:01:00;;;;;;;7.50;2.20;;;;;;;-128.00;-1.00;-1.00;103070;1285;1012727;-78
2022/11/03 11:03:49;;;;;;;9.70;2.50;;;;;;;-128.00;-1.00;-1.00;103069;1278;1013109;-75
2022/11/03 11:06:39;;;;;;;11.50;3.40;;;;;;;-128.00;-1.00;-1.00;103060;1294;1009467;-75
2022/11/03 11:09:27;;;;;;;7.90;2.10;;;;;;;-128.00;-1.00;-1.00;103356;1276;1011049;-77
2022/11/03 11:12:24;;;;;;;9.00;2.00;;;;;;;-128.00;-1.00;-1.00;103491;1279;1013369;-77
2022/11/03 11:15:34;;;;;;;10.20;2.60;;;;;;;-128.00;-1.00;-1.00;103514;1273;1012420;-77
2022/11/03 11:18:27;;;;;;;10.00;2.10;;;;;;;-128.00;-1.00;-1.00;103510;1273;1012273;-77
2022/11/03 11:21:18;;;;;;;8.50;1.90;;;;;;;-128.00;-1.00;-1.00;103460;1293;1010882;-76
2022/11/03 11:24:10;;;;;;;8.90;1.70;;;;;;;-128.00;-1.00;-1.00;103512;1288;1010900;-77
2022/11/03 11:26:58;;;;;;;10.30;2.40;;;;;;;-128.00;-1.00;-1.00;103458;1281;1012726;-76
2022/11/03 11:29:46;;;;;;;9.50;2.30;;;;;;;-128.00;-1.00;-1.00;103493;1280;1012230;-76
2022/11/03 11:32:43;;;;;;;11.60;2.30;;;;;;;-128.00;-1.00;-1.00;103493;1272;1013294;-77
2022/11/03 11:35:52;;;;;;;7.60;1.70;;;;;;;-128.00;-1.00;-1.00;103478;1289;1010533;-78
2022/11/03 11:38:48;;;;;;;8.30;1.70;;;;;;;-128.00;-1.00;-1.00;103529;1273;1010781;-78
2022/11/03 11:42:15;;;;;;;9.90;2.10;;;;;;;-128.00;-1.00;-1.00;103501;1273;1012776;-77
2022/11/03 11:45:04;;;;;;;10.20;2.10;;;;;;;-128.00;-1.00;-1.00;103339;1278;1012784;-76
2022/11/03 11:47:51;;;;;;;11.50;4.20;;;;;;;-128.00;-1.00;-1.00;103482;1279;1013355;-76
2022/11/03 11:50:40;;;;;;;11.00;3.60;;;;;;;-128.00;-1.00;-1.00;103393;1287;1010148;-78
2022/11/03 11:53:36;;;;;;;9.70;2.40;;;;;;;-128.00;-1.00;-1.00;103497;1279;1011285;-78
2022/11/03 11:56:24;;;;;;;9.40;2.00;;;;;;;-128.00;-1.00;-1.00;103452;1279;1012340;-77
2022/11/03 11:59:22;;;;;;;8.70;2.00;;;;;;;-128.00;-1.00;-1.00;103505;1288;1012346;-77
2022/11/03 12:02:22;;;;;;;8.70;2.20;;;;;;;-128.00;-1.00;-1.00;103358;1275;1013231;-76
2022/11/03 12:05:23;;;;;;;11.20;2.20;;;;;;;-128.00;-1.00;-1.00;103489;1273;1010198;-77
2022/11/03 12:08:18;;;;;;;8.30;1.80;;;;;;;-128.00;-1.00;-1.00;103398;1281;1011581;-76
2022/11/03 12:11:09;;;;;;;10.40;2.80;;;;;;;-128.00;-1.00;-1.00;103519;1287;1013447;-77
2022/11/03 12:13:56;;;;;;;13.30;4.10;;;;;;;-128.00;-1.00;-1.00;103413;1281;1013132;-77
2022/11/03 12:16:45;;;;;;;12.40;2.90;;;;;;;-128.00;-1.00;-1.00;103499;1272;1013516;-79
2022/11/03 12:19:40;;;;;;;12.60;2.50;;;;;;;-128.00;-1.00;-1.00;103501;1279;1009665;-77
2022/11/03 12:22:28;;;;;;;12.20;2.30;;;;;;;-128.00;-1.00;-1.00;103501;1281;1010824;-76
2022/11/03 12:25:35;;;;;;;9.20;2.40;;;;;;;-128.00;-1.00;-1.00;103525;1289;1013053;-77
2022/11/03 12:28:34;;;;;;;9.30;2.30;;;;;;;-128.00;-1.00;-1.00;103422;1292;1012501;-77
2022/11/03 12:31:22;;;;;;;9.90;2.30;;;;;;;-128.00;-1.00;-1.00;103501;1286;1012567;-77
2022/11/03 12:34:10;;;;;;;10.10;2.50;;;;;;;-128.00;-1.00;-1.00;103511;1294;1010606;-78
2022/11/03 12:36:58;;;;;;;10.10;1.90;;;;;;;-128.00;-1.00;-1.00;103478;1289;1011549;-78
2022/11/03 12:39:45;;;;;;;14.60;2.60;;;;;;;-128.00;-1.00;-1.00;103492;1280;1012386;-77
2022/11/03 12:42:34;;;;;;;9.80;2.40;;;;;;;-128.00;-1.00;-1.00;103511;1279;1012587;-76
2022/11/03 12:45:21;;;;;;;10.20;2.50;;;;;;;-128.00;-1.00;-1.00;103491;1279;1012762;-76
2022/11/03 12:48:09;;;;;;;9.40;2.40;;;;;;;-128.00;-1.00;-1.00;103471;1288;1010537;-76
2022/11/03 12:50:56;;;;;;;13.10;2.30;;;;;;;-128.00;-1.00;-1.00;103432;1295;1010793;-75
2022/11/03 12:53:45;;;;;;;9.70;2.60;;;;;;;-128.00;-1.00;-1.00;103492;1273;1012829;-76
2022/11/03 12:56:33;;;;;;;8.90;2.20;;;;;;;-128.00;-1.00;-1.00;103502;1280;1011982;-77
2022/11/03 12:59:21;;;;;;;10.40;2.70;;;;;;;-128.00;-1.00;-1.00;103483;1279;1011977;-78
2022/11/03 13:02:10;;;;;;;11.10;2.30;;;;;;;-128.00;-1.00;-1.00;103496;1279;1009231;-77
2022/11/03 13:04:58;;;;;;;8.00;1.90;;;;;;;-128.00;-1.00;-1.00;103373;1288;1010907;-76
2022/11/03 13:07:47;;;;;;;10.80;2.10;;;;;;;-128.00;-1.00;-1.00;103484;1279;1012558;-77
2022/11/03 13:10:34;;;;;;;8.70;2.40;;;;;;;-128.00;-1.00;-1.00;103387;1289;1011552;-76
2022/11/03 13:13:22;;;;;;;8.60;2.90;;;;;;;-128.00;-1.00;-1.00;103491;1273;1012749;-78
2022/11/03 13:16:10;;;;;;;10.50;2.50;;;;;;;-128.00;-1.00;-1.00;103504;1288;1009772;-78
2022/11/03 13:18:58;;;;;;;10.30;2.60;;;;;;;-128.00;-1.00;-1.00;103505;1288;1011250;-76
2022/11/03 13:21:46;;;;;;;11.40;2.90;;;;;;;-128.00;-1.00;-1.00;103500;1272;1013463;-77
2022/11/03 13:24:34;;;;;;;9.40;2.80;;;;;;;-128.00;-1.00;-1.00;103491;1279;1012858;-76
2022/11/03 13:27:21;;;;;;;13.10;3.20;;;;;;;-128.00;-1.00;-1.00;103507;1286;1012712;-77
2022/11/03 13:30:10;;;;;;;8.70;2.20;;;;;;;-128.00;-1.00;-1.00;103465;1286;1010137;-76